createdAt,value
2023-04-30T00:00:12.690Z,6.28
2023-04-30T00:05:14.213Z,5.68
2023-04-30T00:10:15.745Z,5.55
2023-04-30T00:15:17.277Z,5.95
2023-04-30T00:20:18.862Z,5.80
2023-04-30T00:25:21.128Z,4.80
2023-04-30T00:30:22.782Z,5.57
2023-04-30T00:35:24.394Z,5.00
2023-04-30T00:40:26.914Z,5.25
2023-04-30T00:45:28.389Z,5.32
2023-04-30T00:50:30.035Z,5.13
2023-04-30T00:55:31.663Z,6.13
2023-04-30T01:00:33.470Z,6.22
2023-04-30T01:05:34.960Z,5.35
2023-04-30T01:11:17.257Z,5.40
2023-04-30T01:16:25.823Z,5.75
2023-04-30T01:21:30.838Z,5.10
2023-04-30T01:26:35.006Z,5.53
2023-04-30T01:31:36.517Z,5.75
2023-04-30T01:36:54.526Z,5.80
2023-04-30T01:47:09.721Z,5.82
2023-04-30T01:52:47.039Z,6.15
2023-04-30T01:57:58.977Z,5.43
2023-04-30T02:03:00.645Z,5.40
2023-04-30T02:08:02.258Z,5.80
2023-04-30T02:13:03.940Z,5.50
2023-04-30T02:18:05.600Z,5.57
2023-04-30T02:23:09.796Z,5.90
2023-04-30T02:28:11.367Z,6.28
2023-04-30T02:33:12.837Z,6.00
2023-04-30T02:38:14.370Z,5.80
2023-04-30T02:43:15.893Z,5.68
2023-04-30T02:48:17.412Z,5.78
2023-04-30T02:53:18.877Z,6.40
2023-04-30T02:58:20.904Z,5.45
2023-04-30T03:03:22.579Z,5.65
2023-04-30T03:08:24.257Z,6.45
2023-04-30T03:13:26.145Z,6.93
2023-04-30T03:18:29.068Z,6.50
2023-04-30T03:23:30.660Z,7.45
2023-04-30T03:28:32.329Z,6.15
2023-04-30T03:33:34.262Z,7.00
2023-04-30T03:38:35.903Z,7.20
2023-04-30T03:43:38.048Z,6.65
2023-04-30T03:48:39.568Z,7.10
2023-04-30T03:53:41.051Z,6.55
2023-04-30T03:58:42.575Z,8.05
2023-04-30T04:03:44.144Z,6.55
2023-04-30T04:08:45.618Z,6.20
2023-04-30T04:13:47.165Z,6.03
2023-04-30T04:18:48.695Z,6.32
2023-04-30T04:23:50.291Z,6.43
2023-04-30T04:28:52.102Z,7.00
2023-04-30T04:33:58.244Z,6.53
2023-04-30T04:39:03.926Z,6.90
2023-04-30T04:44:05.420Z,7.00
2023-04-30T04:49:06.941Z,6.50
2023-04-30T04:54:08.478Z,6.40
2023-04-30T04:59:10.086Z,5.72
2023-04-30T05:04:13.849Z,5.75
2023-04-30T05:09:15.665Z,5.82
2023-04-30T05:14:17.249Z,5.75
2023-04-30T05:19:18.802Z,5.35
2023-04-30T05:24:20.401Z,4.95
2023-04-30T05:29:21.942Z,4.68
2023-04-30T05:34:23.432Z,4.80
2023-04-30T05:39:25.105Z,4.80
2023-04-30T05:44:26.704Z,5.32
2023-04-30T05:49:28.259Z,4.63
2023-04-30T05:54:30.632Z,5.22
2023-04-30T05:59:32.427Z,4.78
2023-04-30T06:04:34.024Z,4.82
2023-04-30T06:09:35.571Z,4.43
2023-04-30T06:14:37.211Z,4.80
2023-04-30T06:19:38.980Z,4.90
2023-04-30T06:24:40.590Z,4.50
2023-04-30T06:29:42.131Z,4.35
2023-04-30T06:34:43.678Z,4.68
2023-04-30T06:39:45.164Z,4.28
2023-04-30T06:44:47.228Z,3.83
2023-04-30T06:49:49.376Z,5.10
2023-04-30T06:54:51.227Z,4.50
2023-04-30T06:59:53.500Z,3.53
2023-04-30T07:04:55.256Z,3.13
2023-04-30T07:09:57.183Z,3.30
2023-04-30T07:14:59.029Z,3.47
2023-04-30T07:20:00.507Z,3.88
2023-04-30T07:25:02.023Z,3.58
2023-04-30T07:30:04.512Z,3.65
2023-04-30T07:35:06.221Z,3.80
2023-04-30T07:40:15.450Z,4.65
2023-04-30T07:45:20.930Z,4.90
2023-04-30T07:50:22.432Z,5.18
2023-04-30T07:55:23.966Z,4.95
2023-04-30T08:00:26.515Z,5.75
2023-04-30T08:05:28.498Z,4.90
2023-04-30T08:10:29.995Z,4.20
2023-04-30T08:15:33.367Z,4.60
2023-04-30T08:20:36.537Z,3.38
2023-04-30T08:25:39.520Z,4.45
2023-04-30T08:30:41.093Z,3.50
2023-04-30T08:35:42.790Z,3.80
2023-04-30T08:40:52.606Z,4.20
2023-04-30T08:45:54.154Z,4.15
2023-04-30T08:50:55.773Z,4.03
2023-04-30T08:55:58.304Z,4.70
2023-04-30T09:01:01.223Z,4.70
2023-04-30T09:06:02.857Z,5.05
2023-04-30T09:11:30.914Z,5.32
2023-04-30T09:21:47.336Z,4.20
2023-04-30T09:26:49.406Z,4.20
2023-04-30T09:31:50.971Z,3.63
2023-04-30T09:36:55.108Z,3.67
2023-04-30T09:42:10.064Z,3.50
2023-04-30T09:47:19.426Z,3.55
2023-04-30T09:52:21.521Z,3.40
2023-04-30T09:57:24.121Z,2.85
2023-04-30T10:02:26.486Z,3.33
2023-04-30T10:07:36.340Z,3.20
2023-04-30T10:12:50.590Z,2.80
2023-04-30T10:18:02.310Z,3.65
2023-04-30T10:23:04.685Z,2.58
2023-04-30T10:28:10.721Z,2.65
2023-04-30T10:33:16.673Z,2.80
2023-04-30T10:38:25.003Z,2.42
2023-04-30T10:43:27.818Z,2.10
2023-04-30T10:48:31.204Z,2.20
2023-04-30T10:53:33.929Z,2.33
2023-04-30T10:58:40.114Z,2.30
2023-04-30T11:03:43.322Z,2.95
2023-04-30T11:08:46.198Z,2.35
2023-04-30T11:13:57.907Z,2.58
2023-04-30T11:19:17.323Z,1.75
2023-04-30T11:24:19.901Z,1.98
2023-04-30T11:29:22.720Z,2.47
2023-04-30T11:34:25.389Z,2.33
2023-04-30T11:39:29.197Z,2.42
2023-04-30T11:44:30.825Z,1.85
2023-04-30T11:49:32.453Z,1.50
2023-04-30T11:54:36.870Z,1.92
2023-04-30T11:59:42.295Z,1.70
2023-04-30T12:04:44.240Z,1.50
2023-04-30T12:09:59.248Z,1.98
2023-04-30T12:15:11.360Z,2.20
2023-04-30T12:20:15.316Z,1.95
2023-04-30T12:25:21.612Z,1.92
2023-04-30T12:30:27.033Z,2.80
2023-04-30T12:35:31.368Z,2.22
2023-04-30T12:40:33.607Z,2.55
2023-04-30T12:45:55.855Z,2.53
2023-04-30T12:51:02.089Z,2.33
2023-04-30T12:56:22.340Z,2.13
2023-04-30T13:01:25.335Z,2.42
2023-04-30T13:06:27.689Z,2.25
2023-04-30T13:11:29.532Z,2.40
2023-04-30T13:16:32.110Z,3.30
2023-04-30T13:21:33.998Z,2.45
2023-04-30T13:26:35.854Z,2.28
2023-04-30T13:31:37.690Z,2.45
2023-04-30T13:36:39.304Z,2.60
2023-04-30T13:41:40.953Z,4.70
2023-04-30T13:46:42.565Z,3.63
2023-04-30T13:51:44.096Z,3.00
2023-04-30T13:56:45.734Z,3.28
2023-04-30T14:01:47.292Z,3.33
2023-04-30T14:06:49.212Z,3.15
2023-04-30T14:11:51.265Z,3.67
2023-04-30T14:16:52.914Z,3.83
2023-04-30T14:21:55.552Z,3.22
2023-04-30T14:26:57.089Z,3.83
2023-04-30T14:31:58.725Z,3.63
2023-04-30T14:37:03.371Z,3.85
2023-04-30T14:42:05.223Z,4.07
2023-04-30T14:47:06.989Z,3.70
2023-04-30T14:52:08.917Z,3.30
2023-04-30T14:57:10.482Z,3.60
2023-04-30T15:02:12.102Z,3.80
2023-04-30T15:07:13.830Z,3.00
2023-04-30T15:12:15.449Z,3.67
2023-04-30T15:17:17.117Z,2.95
2023-04-30T15:22:18.669Z,2.83
2023-04-30T15:27:20.341Z,2.53
2023-04-30T15:32:21.939Z,2.65
2023-04-30T15:37:23.559Z,2.67
2023-04-30T15:42:25.123Z,3.13
2023-04-30T15:47:27.958Z,2.78
2023-04-30T15:52:29.485Z,2.78
2023-04-30T15:57:31.021Z,2.90
2023-04-30T16:02:32.537Z,2.85
2023-04-30T16:07:34.427Z,2.42
2023-04-30T16:12:36.684Z,2.88
2023-04-30T16:17:38.410Z,2.95
2023-04-30T16:22:40.103Z,2.35
2023-04-30T16:27:45.660Z,2.60
2023-04-30T16:32:47.641Z,2.58
2023-04-30T16:37:49.220Z,3.05
2023-04-30T16:42:50.736Z,2.67
2023-04-30T16:47:52.308Z,2.85
2023-04-30T16:52:54.007Z,2.67
2023-04-30T16:57:55.539Z,2.42
2023-04-30T17:02:57.188Z,2.38
2023-04-30T17:07:58.779Z,2.47
2023-04-30T17:13:03.944Z,2.15
2023-04-30T17:18:06.122Z,2.30
2023-04-30T17:23:07.722Z,2.58
2023-04-30T17:28:09.384Z,2.80
2023-04-30T17:33:11.019Z,2.20
2023-04-30T17:38:12.533Z,1.90
2023-04-30T17:43:13.999Z,1.95
2023-04-30T17:48:15.482Z,2.10
2023-04-30T17:53:17.069Z,2.03
2023-04-30T17:58:18.553Z,2.05
2023-04-30T18:03:20.137Z,2.70
2023-04-30T18:08:21.913Z,2.38
2023-04-30T18:13:23.597Z,2.45
2023-04-30T18:18:25.099Z,2.53
2023-04-30T18:23:26.750Z,2.90
2023-04-30T18:28:29.179Z,2.78
2023-04-30T18:33:30.979Z,2.60
2023-04-30T18:38:32.537Z,3.00
2023-04-30T18:43:34.102Z,3.58
2023-04-30T18:48:36.400Z,3.25
2023-04-30T18:53:37.952Z,3.38
2023-04-30T18:58:39.457Z,3.63
2023-04-30T19:03:42.056Z,3.17
2023-04-30T19:08:45.577Z,3.50
2023-04-30T19:13:48.003Z,3.53
2023-04-30T19:18:49.647Z,6.47
2023-04-30T19:23:51.365Z,3.65
2023-04-30T19:28:52.938Z,3.03
2023-04-30T19:33:54.433Z,3.97
2023-04-30T19:38:56.330Z,3.65
2023-04-30T19:43:58.046Z,3.53
2023-04-30T19:48:59.604Z,4.93
2023-04-30T19:54:01.216Z,3.28
2023-04-30T19:59:02.788Z,3.33
2023-04-30T20:04:04.805Z,3.67
2023-04-30T20:09:06.504Z,3.72
2023-04-30T20:14:08.273Z,3.28
2023-04-30T20:19:10.682Z,4.20
2023-04-30T20:24:12.197Z,4.47
2023-04-30T20:29:13.745Z,4.93
2023-04-30T20:34:15.282Z,3.60
2023-04-30T20:39:17.399Z,4.55
2023-04-30T20:44:18.924Z,12.00
2023-04-30T20:49:20.517Z,6.07
2023-04-30T20:54:22.066Z,3.47
2023-04-30T20:59:23.689Z,3.22
2023-04-30T21:04:25.238Z,2.97
2023-04-30T21:09:26.714Z,2.40
2023-04-30T21:14:28.252Z,2.40
2023-04-30T21:19:31.449Z,1.95
2023-04-30T21:24:33.011Z,1.60
2023-04-30T21:29:35.181Z,1.63
2023-04-30T21:34:36.777Z,1.73
2023-04-30T21:39:38.662Z,1.48
2023-04-30T21:44:40.281Z,2.10
2023-04-30T21:49:42.626Z,1.83
2023-04-30T21:54:44.162Z,1.70
2023-04-30T21:59:45.729Z,2.22
2023-04-30T22:04:47.568Z,1.83
2023-04-30T22:09:49.132Z,1.77
2023-04-30T22:14:54.976Z,1.80
2023-04-30T22:19:57.649Z,1.88
2023-04-30T22:24:59.442Z,2.35
2023-04-30T22:30:01.078Z,2.22
2023-04-30T22:35:03.329Z,2.42
2023-04-30T22:40:05.925Z,2.40
2023-04-30T22:45:09.265Z,2.42
2023-04-30T22:50:10.773Z,2.28
2023-04-30T22:55:12.552Z,3.28
2023-04-30T23:00:14.530Z,3.35
2023-04-30T23:05:16.171Z,2.60
2023-04-30T23:10:18.078Z,3.10
2023-04-30T23:15:19.573Z,3.30
2023-04-30T23:20:22.738Z,3.25
2023-04-30T23:25:24.355Z,3.33
2023-04-30T23:30:25.953Z,3.50
2023-04-30T23:35:27.473Z,2.85
2023-04-30T23:40:29.075Z,3.50
2023-04-30T23:45:30.791Z,3.30
2023-04-30T23:50:32.335Z,3.40
2023-04-30T23:55:34.950Z,3.22
